Gladys S — WDB9526 — position and weather

sailwx.info

Track history (hours):
 
Tides and Currents Weather Stations Pressure Air Temp Water Temp Dewpoint Dewpoint Depression Visibility Wind Speed Wind Dir Waves Ship Positions

Gladys S

Owner: AMERICAN WORKBOATS, TERMINAL ISLAND, CA. More information available from US FCC via Universal Licensing System and Coast Guard Vessel Documentation Center.

Last reported at 2017-Nov-19 20:11 UTC. Time now 2017-Nov-23 16:53 UTC.
Position N 33°43' W 118°16'.

; draft 6.9 m.

Type: Military. MMSI: 366977850.

Date/timePositionNaut miles runAvg speedWind from/ knotsBaromVisibWave heightAir tempDewpointWater temp
2017-Nov-19 20:11N 33°43' W 118°16'1 0.3
2017-Nov-19 16:50N 33°42' W 118°15'3 0.2
2017-Nov-19 01:45N 33°42' W 118°19'416.7
2017-Nov-19 01:30N 33°43' W 118°24'7 1.9
2017-Nov-18 21:51N 33°49' W 118°27'614.6
2017-Nov-18 21:28N 33°44' W 118°25'715.0
2017-Nov-18 21:00N 33°42' W 118°17'  
2017-Nov-14 20:56N 33°41' W 118°07'0 0.1
2017-Nov-14 20:13N 33°41' W 118°07'0 0.1
2017-Nov-14 19:58N 33°41' W 118°07'0 0.2
2017-Nov-14 19:30N 33°41' W 118°07'0 0.0
2017-Nov-14 18:03N 33°41' W 118°07'8 6.3
2017-Nov-14 16:48N 33°44' W 118°16'0 0.0
2017-Nov-14 00:59N 33°44' W 118°16'0 0.1
2017-Nov-14 00:18N 33°44' W 118°16'  
Track history (hours):
 
Tides and Currents Weather Stations Pressure Air Temp Water Temp Dewpoint Dewpoint Depression Visibility Wind Speed Wind Dir Waves Ship Positions

Gladys S

Owner: AMERICAN WORKBOATS, TERMINAL ISLAND, CA. More information available from US FCC via Universal Licensing System and Coast Guard Vessel Documentation Center.

Last reported at 2017-Nov-19 20:11 UTC. Time now 2017-Nov-23 16:53 UTC.
Position N 33°43' W 118°16'.

; draft 6.9 m.

Type: Military. MMSI: 366977850.

Date/timePositionNaut miles runAvg speedWind from/ knotsBaromVisibWave heightAir tempDewpointWater temp
2017-Nov-19 20:11N 33°43' W 118°16'1 0.3
2017-Nov-19 16:50N 33°42' W 118°15'3 0.2
2017-Nov-19 01:45N 33°42' W 118°19'416.7
2017-Nov-19 01:30N 33°43' W 118°24'7 1.9
2017-Nov-18 21:51N 33°49' W 118°27'614.6
2017-Nov-18 21:28N 33°44' W 118°25'715.0
2017-Nov-18 21:00N 33°42' W 118°17'  
2017-Nov-14 20:56N 33°41' W 118°07'0 0.1
2017-Nov-14 20:13N 33°41' W 118°07'0 0.1
2017-Nov-14 19:58N 33°41' W 118°07'0 0.2
2017-Nov-14 19:30N 33°41' W 118°07'0 0.0
2017-Nov-14 18:03N 33°41' W 118°07'8 6.3
2017-Nov-14 16:48N 33°44' W 118°16'0 0.0
2017-Nov-14 00:59N 33°44' W 118°16'0 0.1
2017-Nov-14 00:18N 33°44' W 118°16'  

Dump ship's entire track history